Time,TemperatureF,DewpointF,PressureIn,WindDirection,WindDirectionDegrees,WindSpeedMPH,WindSpeedGustMPH,Humidity,HourlyPrecipIn,Conditions,Clouds,dailyrainin,SoftwareType,DateUTC
2014-01-13 00:02:00,28.0,25.8,30.12,ESE,112,0.0,-999.0,91,-99.99,,,0.00,Acu-Link.com,2014-01-13 05:02:00,
2014-01-13 00:17:00,27.9,25.6,30.12,SSE,157,0.0,-999.0,91,-99.99,,,0.00,Acu-Link.com,2014-01-13 05:17:00,
2014-01-13 00:32:00,27.5,25.2,30.13,South,180,0.0,-999.0,91,-99.99,,,0.00,Acu-Link.com,2014-01-13 05:32:00,
2014-01-13 00:47:00,27.1,24.9,30.13,South,180,0.0,-999.0,91,-99.99,,,0.00,Acu-Link.com,2014-01-13 05:47:00,
2014-01-13 01:03:00,27.0,24.7,30.13,SSE,157,0.0,-999.0,91,-99.99,,,0.00,Acu-Link.com,2014-01-13 06:03:00,
2014-01-13 01:18:00,26.6,24.6,30.13,ESE,112,0.0,-999.0,92,-99.99,,,0.00,Acu-Link.com,2014-01-13 06:18:00,
2014-01-13 01:33:00,26.8,25.0,30.13,ESE,112,0.0,-999.0,93,-99.99,,,0.00,Acu-Link.com,2014-01-13 06:33:00,
2014-01-13 01:48:00,26.8,25.0,30.13,South,180,0.0,-999.0,93,-99.99,,,0.00,Acu-Link.com,2014-01-13 06:48:00,
2014-01-13 02:04:00,26.4,24.7,30.13,South,180,0.0,-999.0,93,-99.99,,,0.00,Acu-Link.com,2014-01-13 07:04:00,
2014-01-13 02:19:00,26.1,24.3,30.14,SSE,157,0.0,-999.0,93,-99.99,,,0.00,Acu-Link.com,2014-01-13 07:19:00,
2014-01-13 02:34:00,25.9,24.1,30.14,ESE,112,0.0,-999.0,93,-99.99,,,0.00,Acu-Link.com,2014-01-13 07:34:00,
2014-01-13 02:49:00,25.9,24.1,30.13,SSW,202,0.0,-999.0,93,-99.99,,,0.00,Acu-Link.com,2014-01-13 07:49:00,
2014-01-13 03:04:00,25.9,24.1,30.13,South,180,0.0,-999.0,93,-99.99,,,0.00,Acu-Link.com,2014-01-13 08:04:00,
2014-01-13 03:20:00,25.7,24.0,30.13,SSE,157,0.0,-999.0,93,-99.99,,,0.00,Acu-Link.com,2014-01-13 08:20:00,
2014-01-13 03:35:00,25.7,24.0,30.13,SE,135,0.0,-999.0,93,-99.99,,,0.00,Acu-Link.com,2014-01-13 08:35:00,
2014-01-13 03:50:00,25.9,24.1,30.12,SSE,157,0.0,-999.0,93,-99.99,,,0.00,Acu-Link.com,2014-01-13 08:50:00,
2014-01-13 04:05:00,25.9,24.1,30.13,SSE,157,0.0,-999.0,93,-99.99,,,0.00,Acu-Link.com,2014-01-13 09:05:00,
2014-01-13 04:20:00,25.9,24.1,30.12,SSE,157,0.0,-999.0,93,-99.99,,,0.00,Acu-Link.com,2014-01-13 09:20:00,
2014-01-13 04:36:00,25.9,24.1,30.12,SE,135,0.0,-999.0,93,-99.99,,,0.00,Acu-Link.com,2014-01-13 09:36:00,
2014-01-13 04:51:00,25.5,23.8,30.13,SSE,157,0.0,-999.0,93,-99.99,,,0.00,Acu-Link.com,2014-01-13 09:51:00,
2014-01-13 05:06:00,25.3,23.6,30.13,SSE,157,0.0,-999.0,93,-99.99,,,0.00,Acu-Link.com,2014-01-13 10:06:00,
2014-01-13 05:21:00,25.3,23.6,30.13,South,180,0.0,-999.0,93,-99.99,,,0.00,Acu-Link.com,2014-01-13 10:21:00,
2014-01-13 05:36:00,25.5,23.8,30.12,ENE,67,2.2,-999.0,93,-99.99,,,0.00,Acu-Link.com,2014-01-13 10:36:00,
2014-01-13 05:52:00,25.7,24.0,30.12,South,180,0.0,-999.0,93,-99.99,,,0.00,Acu-Link.com,2014-01-13 10:52:00,
2014-01-13 06:07:00,25.5,23.8,30.12,SSE,157,0.0,-999.0,93,-99.99,,,0.00,Acu-Link.com,2014-01-13 11:07:00,
2014-01-13 06:22:00,25.3,23.6,30.13,SSE,157,0.0,-999.0,93,-99.99,,,0.00,Acu-Link.com,2014-01-13 11:22:00,
2014-01-13 06:37:00,25.2,23.4,30.15,SE,135,0.0,-999.0,93,-99.99,,,0.00,Acu-Link.com,2014-01-13 11:37:00,
2014-01-13 06:53:00,25.5,24.0,30.13,SE,135,0.0,-999.0,94,-99.99,,,0.00,Acu-Link.com,2014-01-13 11:53:00,
2014-01-13 07:08:00,25.7,24.2,30.14,ESE,112,0.0,-999.0,94,-99.99,,,0.00,Acu-Link.com,2014-01-13 12:08:00,
2014-01-13 07:23:00,25.7,24.2,30.14,SSE,157,0.0,-999.0,94,-99.99,,,0.00,Acu-Link.com,2014-01-13 12:23:00,
2014-01-13 07:38:00,25.9,24.4,30.14,SE,135,0.0,-999.0,94,-99.99,,,0.00,Acu-Link.com,2014-01-13 12:38:00,
2014-01-13 07:53:00,26.8,25.3,30.15,SSE,157,0.0,-999.0,94,-99.99,,,0.00,Acu-Link.com,2014-01-13 12:53:00,
2014-01-13 08:09:00,28.2,26.7,30.14,SE,135,0.0,-999.0,94,-99.99,,,0.00,Acu-Link.com,2014-01-13 13:09:00,
2014-01-13 08:24:00,29.1,27.6,30.15,SE,135,0.0,-999.0,94,-99.99,,,0.00,Acu-Link.com,2014-01-13 13:24:00,
2014-01-13 08:39:00,32.5,31.0,30.15,SSE,157,0.0,-999.0,94,-99.99,,,0.00,Acu-Link.com,2014-01-13 13:39:00,
2014-01-13 08:54:00,39.4,36.1,30.15,SSE,157,1.6,-999.0,88,-99.99,,,0.00,Acu-Link.com,2014-01-13 13:54:00,
2014-01-13 09:09:00,43.2,37.7,30.15,South,180,1.1,-999.0,81,-99.99,,,0.00,Acu-Link.com,2014-01-13 14:09:00,
2014-01-13 09:25:00,45.7,39.2,30.15,East,90,0.0,-999.0,78,-99.99,,,0.00,Acu-Link.com,2014-01-13 14:25:00,
2014-01-13 09:40:00,46.9,39.4,30.14,West,270,2.2,-999.0,75,-99.99,,,0.00,Acu-Link.com,2014-01-13 14:40:00,
2014-01-13 09:55:00,48.6,40.7,30.14,SSE,157,3.1,-999.0,74,-99.99,,,0.00,Acu-Link.com,2014-01-13 14:55:00,
2014-01-13 10:10:00,50.0,41.3,30.14,WSW,247,2.2,-999.0,72,-99.99,,,0.00,Acu-Link.com,2014-01-13 15:10:00,
2014-01-13 10:25:00,51.6,41.4,30.13,West,270,4.7,-999.0,68,-99.99,,,0.00,Acu-Link.com,2014-01-13 15:25:00,
2014-01-13 10:41:00,53.2,42.2,30.13,WSW,247,0.0,-999.0,66,-99.99,,,0.00,Acu-Link.com,2014-01-13 15:41:00,
2014-01-13 10:56:00,54.5,41.8,30.12,South,180,2.7,-999.0,62,-99.99,,,0.00,Acu-Link.com,2014-01-13 15:56:00,
2014-01-13 11:11:00,55.4,41.7,30.11,SW,225,1.6,-999.0,60,-99.99,,,0.00,Acu-Link.com,2014-01-13 16:11:00,
2014-01-13 11:26:00,56.1,41.5,30.09,South,180,3.1,-999.0,58,-99.99,,,0.00,Acu-Link.com,2014-01-13 16:26:00,
2014-01-13 11:42:00,56.3,41.3,30.08,South,180,2.2,-999.0,57,-99.99,,,0.00,Acu-Link.com,2014-01-13 16:42:00,
2014-01-13 11:57:00,57.2,41.2,30.07,WSW,247,2.7,-999.0,55,-99.99,,,0.00,Acu-Link.com,2014-01-13 16:57:00,
2014-01-13 12:12:00,56.5,40.0,30.07,WSW,247,2.7,-999.0,54,-99.99,,,0.00,Acu-Link.com,2014-01-13 17:12:00,
2014-01-13 12:27:00,55.0,39.6,30.06,WSW,247,2.2,-999.0,56,-99.99,,,0.00,Acu-Link.com,2014-01-13 17:27:00,
2014-01-13 12:42:00,56.3,40.3,30.05,SSE,157,5.8,-999.0,55,-99.99,,,0.00,Acu-Link.com,2014-01-13 17:42:00,
2014-01-13 12:58:00,55.9,40.0,30.05,SE,135,6.3,-999.0,55,-99.99,,,0.00,Acu-Link.com,2014-01-13 17:58:00,
2014-01-13 13:13:00,56.8,40.4,30.03,South,180,2.2,-999.0,54,-99.99,,,0.00,Acu-Link.com,2014-01-13 18:13:00,
2014-01-13 13:28:00,56.1,40.2,30.03,West,270,3.1,-999.0,55,-99.99,,,0.00,Acu-Link.com,2014-01-13 18:28:00,
2014-01-13 13:43:00,56.3,41.7,30.02,SW,225,2.2,-999.0,58,-99.99,,,0.00,Acu-Link.com,2014-01-13 18:43:00,
2014-01-13 13:58:00,55.2,41.6,30.02,SSE,157,2.2,-999.0,60,-99.99,,,0.00,Acu-Link.com,2014-01-13 18:58:00,
2014-01-13 14:14:00,54.3,41.2,30.01,SW,225,2.7,-999.0,61,-99.99,,,0.00,Acu-Link.com,2014-01-13 19:14:00,
2014-01-13 14:29:00,54.3,41.2,30.02,ENE,67,2.2,-999.0,61,-99.99,,,0.00,Acu-Link.com,2014-01-13 19:29:00,
2014-01-13 14:44:00,53.4,41.1,30.02,SSW,202,4.3,-999.0,63,-99.99,,,0.00,Acu-Link.com,2014-01-13 19:44:00,
2014-01-13 14:59:00,53.1,40.8,30.01,SSW,202,2.2,-999.0,63,-99.99,,,0.00,Acu-Link.com,2014-01-13 19:59:00,
2014-01-13 15:14:00,53.2,41.0,30.02,SSE,157,2.7,-999.0,63,-99.99,,,0.00,Acu-Link.com,2014-01-13 20:14:00,
2014-01-13 15:30:00,52.2,40.8,30.02,South,180,1.1,-999.0,65,-99.99,,,0.00,Acu-Link.com,2014-01-13 20:30:00,
2014-01-13 15:45:00,51.8,40.4,30.02,SSE,157,4.3,-999.0,65,-99.99,,,0.00,Acu-Link.com,2014-01-13 20:45:00,
2014-01-13 16:00:00,50.5,39.6,30.01,WSW,247,3.8,-999.0,66,-99.99,,,0.00,Acu-Link.com,2014-01-13 21:00:00,
2014-01-13 16:15:00,49.8,39.3,30.01,SSE,157,2.7,-999.0,67,-99.99,,,0.00,Acu-Link.com,2014-01-13 21:15:00,
2014-01-13 16:31:00,48.6,39.6,30.01,SSE,157,2.2,-999.0,71,-99.99,,,0.00,Acu-Link.com,2014-01-13 21:31:00,
2014-01-13 16:46:00,47.3,39.4,30.00,SSE,157,4.3,-999.0,74,-99.99,,,0.00,Acu-Link.com,2014-01-13 21:46:00,
2014-01-13 17:01:00,46.6,39.8,30.00,West,270,1.1,-999.0,77,-99.99,,,0.00,Acu-Link.com,2014-01-13 22:01:00,
2014-01-13 17:16:00,46.4,39.9,29.99,SSW,202,2.7,-999.0,78,-99.99,,,0.00,Acu-Link.com,2014-01-13 22:16:00,
2014-01-13 17:31:00,46.0,39.6,29.99,WSW,247,4.3,-999.0,78,-99.99,,,0.00,Acu-Link.com,2014-01-13 22:31:00,
2014-01-13 17:47:00,45.9,39.7,29.99,WNW,292,4.3,-999.0,79,-99.99,,,0.00,Acu-Link.com,2014-01-13 22:47:00,
2014-01-13 18:02:00,45.9,39.7,30.00,South,180,2.2,-999.0,79,-99.99,,,0.00,Acu-Link.com,2014-01-13 23:02:00,
2014-01-13 18:17:00,45.7,39.5,30.00,NNE,22,2.7,-999.0,79,-99.99,,,0.00,Acu-Link.com,2014-01-13 23:17:00,
2014-01-13 18:32:00,45.5,39.4,29.99,West,270,2.2,-999.0,79,-99.99,,,0.00,Acu-Link.com,2014-01-13 23:32:00,
2014-01-13 18:48:00,45.1,39.0,29.99,ESE,112,0.0,-999.0,79,-99.99,,,0.00,Acu-Link.com,2014-01-13 23:48:00,
2014-01-13 19:03:00,45.1,39.0,29.98,WSW,247,1.1,-999.0,79,-99.99,,,0.00,Acu-Link.com,2014-01-14 00:03:00,
2014-01-13 19:18:00,45.0,38.8,29.98,South,180,1.6,-999.0,79,-99.99,,,0.00,Acu-Link.com,2014-01-14 00:18:00,
2014-01-13 19:33:00,45.1,39.0,29.97,WSW,247,2.2,-999.0,79,-99.99,,,0.00,Acu-Link.com,2014-01-14 00:33:00,
2014-01-13 19:48:00,45.3,39.2,29.97,ENE,67,3.1,-999.0,79,-99.99,,,0.00,Acu-Link.com,2014-01-14 00:48:00,
2014-01-13 20:04:00,45.9,39.7,29.97,WSW,247,3.8,-999.0,79,-99.99,,,0.00,Acu-Link.com,2014-01-14 01:04:00,
2014-01-13 20:19:00,46.2,40.1,29.97,South,180,3.1,-999.0,79,-99.99,,,0.00,Acu-Link.com,2014-01-14 01:19:00,
2014-01-13 20:34:00,46.2,40.1,29.97,West,270,2.2,-999.0,79,-99.99,,,0.00,Acu-Link.com,2014-01-14 01:34:00,
2014-01-13 20:49:00,46.2,40.1,29.97,WNW,292,3.1,-999.0,79,-99.99,,,0.00,Acu-Link.com,2014-01-14 01:49:00,
2014-01-13 21:04:00,46.2,40.1,29.96,SSW,202,1.6,-999.0,79,-99.99,,,0.00,Acu-Link.com,2014-01-14 02:04:00,
2014-01-13 21:20:00,46.2,40.1,29.96,SW,225,3.1,-999.0,79,-99.99,,,0.00,Acu-Link.com,2014-01-14 02:20:00,
2014-01-13 21:35:00,46.4,40.2,29.96,WNW,292,2.7,-999.0,79,-99.99,,,0.00,Acu-Link.com,2014-01-14 02:35:00,
2014-01-13 21:50:00,46.6,40.7,29.96,South,180,0.0,-999.0,80,-99.99,,,0.00,Acu-Link.com,2014-01-14 02:50:00,
2014-01-13 22:05:00,46.2,40.7,29.96,SW,225,2.2,-999.0,81,-99.99,,,0.00,Acu-Link.com,2014-01-14 03:05:00,
2014-01-13 22:20:00,46.2,40.7,29.97,WSW,247,3.1,-999.0,81,-99.99,,,0.00,Acu-Link.com,2014-01-14 03:20:00,
2014-01-13 22:36:00,46.4,40.9,29.96,West,270,2.7,-999.0,81,-99.99,,,0.00,Acu-Link.com,2014-01-14 03:36:00,
2014-01-13 22:51:00,46.4,40.9,29.94,West,270,3.8,-999.0,81,-99.99,,,0.00,Acu-Link.com,2014-01-14 03:51:00,
2014-01-13 23:06:00,46.4,41.2,29.94,SSW,202,0.0,-999.0,82,-99.99,,,0.00,Acu-Link.com,2014-01-14 04:06:00,
2014-01-13 23:21:00,46.0,41.2,29.93,SW,225,2.7,-999.0,83,-99.99,,,0.00,Acu-Link.com,2014-01-14 04:21:00,
2014-01-13 23:37:00,45.5,41.0,29.93,West,270,0.0,-999.0,84,-99.99,,,0.00,Acu-Link.com,2014-01-14 04:37:00,
2014-01-13 23:52:00,45.1,40.9,29.92,SSE,157,3.1,-999.0,85,-99.99,,,0.00,Acu-Link.com,2014-01-14 04:52:00,